Elkin, North Carolina
Current Conditions -  °F | °C
As of 6:15 PM on Friday 19 Dec 2014 (Local Time) from KUKF Reporting Station
Clear Clear  
Wind Chill: 42°   Ceiling: Unl
Heat Index: 45°   Visibility: 10mi
Dew Point: 27°   Wind: 5mph
Humidity: 49%   Direction: 350°N
Pressure: 30.19"   Gusts: NA
Location:  36.24°N, 80.85°W
Report Text: KUKF 192315Z AUTO 35004KT 10SM CLR 07/M03 A3019 RMK AO2
Loading
Personal Weather Stations






























Interactive Weather Map New forecast layout! Learn more

10-Day Weather Forecast

Advertisements
Track Severe Weather on mobile